Portada
METAR-TAF:

METAR-TAF

Aeroports :

Dakar, Senegal

latitud: 14-44N, longitud: 017-30W, altitud: 27 m

Observació

L'informe es va fer fa 52 minuts, a les 04:00 UTC
Vent 14 kt del Nord-Oest
Temperatura 24°C
Humitat 83%
Pressió 1013 hPa
Visibilitat 10 km o més
sense núvols per sota de 1500 mi sense presència de cumulonimbus.

METAR: GOOY 060400Z 32014KT CAVOK 24/21 Q1013

Hora: 04:52 (04:52 UTC)

Pronòstic

L'informe es va fer fa 5 hores i 22 minuts, a les 23:30 UTC
Pronòstic vàlid del 06 a les 00 UTC al 07 a les 06 UTC
Vent 10 kt del Nord/Nord-Oest
Visibilitat 10 km o més
sense núvols per sota de 1500 mi sense presència de cumulonimbus.

TAF: GOOY 052330Z 0600/0706 34010KT CAVOK

Observacions i pronòstics meteorològics de més de 4000 aeroports (METAR i TAF).

Les estacions disponibles són els punts grocs i vermells al mapa.

Posi el ratolí al punt desitjat per veure el nom de l'estació.

Feu clic per veure les observacions i els pronòstics meteorològics.

Per canviar el mapa: feu clic els botons verds amb una creu de color negre per apropar; al botó verd amb un guió per allunyar la imatge; o en les fletxes verdes per a mapes adjacents.


METAR-TAF: